sensor_id;sensor_type;location;lat;lon;timestamp;P1;durP1;ratioP1;P2;durP2;ratioP2
33830;SDS011;20137;48.834;8.732;2022-11-11T00:01:54;5.03;;;1.75;;
33830;SDS011;20137;48.834;8.732;2022-11-11T00:04:20;8.23;;;1.58;;
33830;SDS011;20137;48.834;8.732;2022-11-11T00:06:47;6.70;;;1.92;;
33830;SDS011;20137;48.834;8.732;2022-11-11T00:09:12;4.93;;;2.35;;
33830;SDS011;20137;48.834;8.732;2022-11-11T00:11:39;4.72;;;1.92;;
33830;SDS011;20137;48.834;8.732;2022-11-11T00:14:05;5.97;;;1.88;;
33830;SDS011;20137;48.834;8.732;2022-11-11T00:16:31;3.60;;;1.90;;
33830;SDS011;20137;48.834;8.732;2022-11-11T00:19:17;5.97;;;1.77;;
33830;SDS011;20137;48.834;8.732;2022-11-11T00:22:02;5.47;;;1.92;;
33830;SDS011;20137;48.834;8.732;2022-11-11T00:24:46;3.78;;;1.88;;
33830;SDS011;20137;48.834;8.732;2022-11-11T00:27:31;5.05;;;1.90;;
33830;SDS011;20137;48.834;8.732;2022-11-11T00:29:57;6.95;;;1.80;;
33830;SDS011;20137;48.834;8.732;2022-11-11T00:32:23;4.15;;;1.50;;
33830;SDS011;20137;48.834;8.732;2022-11-11T00:34:55;4.45;;;2.13;;
33830;SDS011;20137;48.834;8.732;2022-11-11T00:37:40;5.00;;;1.42;;
33830;SDS011;20137;48.834;8.732;2022-11-11T00:40:07;8.25;;;1.77;;
33830;SDS011;20137;48.834;8.732;2022-11-11T00:42:33;5.70;;;1.60;;
33830;SDS011;20137;48.834;8.732;2022-11-11T00:44:59;4.13;;;1.63;;
33830;SDS011;20137;48.834;8.732;2022-11-11T00:47:25;7.13;;;1.90;;
33830;SDS011;20137;48.834;8.732;2022-11-11T00:50:10;3.60;;;1.70;;
33830;SDS011;20137;48.834;8.732;2022-11-11T00:52:55;2.28;;;1.42;;
33830;SDS011;20137;48.834;8.732;2022-11-11T00:55:21;6.30;;;1.67;;
33830;SDS011;20137;48.834;8.732;2022-11-11T00:57:47;4.95;;;1.90;;
33830;SDS011;20137;48.834;8.732;2022-11-11T01:00:13;5.70;;;2.00;;
33830;SDS011;20137;48.834;8.732;2022-11-11T01:02:39;4.88;;;2.03;;
33830;SDS011;20137;48.834;8.732;2022-11-11T01:05:05;4.20;;;1.67;;
33830;SDS011;20137;48.834;8.732;2022-11-11T01:07:31;4.38;;;1.85;;
33830;SDS011;20137;48.834;8.732;2022-11-11T01:09:57;5.10;;;1.90;;
33830;SDS011;20137;48.834;8.732;2022-11-11T01:12:23;7.25;;;1.77;;
33830;SDS011;20137;48.834;8.732;2022-11-11T01:14:49;5.13;;;1.42;;
33830;SDS011;20137;48.834;8.732;2022-11-11T01:17:17;4.28;;;1.58;;
33830;SDS011;20137;48.834;8.732;2022-11-11T01:19:43;5.03;;;1.80;;
33830;SDS011;20137;48.834;8.732;2022-11-11T01:22:09;3.50;;;1.65;;
33830;SDS011;20137;48.834;8.732;2022-11-11T01:24:36;3.83;;;1.70;;
33830;SDS011;20137;48.834;8.732;2022-11-11T01:27:03;6.85;;;1.88;;
33830;SDS011;20137;48.834;8.732;2022-11-11T01:29:29;3.67;;;1.40;;
33830;SDS011;20137;48.834;8.732;2022-11-11T01:31:55;4.72;;;1.45;;
33830;SDS011;20137;48.834;8.732;2022-11-11T01:34:21;4.68;;;1.30;;
33830;SDS011;20137;48.834;8.732;2022-11-11T01:36:47;4.85;;;1.60;;
33830;SDS011;20137;48.834;8.732;2022-11-11T01:39:13;3.80;;;1.23;;
33830;SDS011;20137;48.834;8.732;2022-11-11T01:41:39;5.40;;;1.40;;
33830;SDS011;20137;48.834;8.732;2022-11-11T01:49:15;6.10;;;1.40;;
33830;SDS011;20137;48.834;8.732;2022-11-11T01:51:45;5.25;;;1.60;;
33830;SDS011;20137;48.834;8.732;2022-11-11T01:56:50;9.50;;;1.52;;
33830;SDS011;20137;48.834;8.732;2022-11-11T01:59:18;4.25;;;1.42;;
33830;SDS011;20137;48.834;8.732;2022-11-11T02:01:44;4.20;;;1.55;;
33830;SDS011;20137;48.834;8.732;2022-11-11T02:04:12;3.30;;;1.30;;
33830;SDS011;20137;48.834;8.732;2022-11-11T02:06:57;3.92;;;1.55;;
33830;SDS011;20137;48.834;8.732;2022-11-11T02:09:25;3.47;;;1.52;;
33830;SDS011;20137;48.834;8.732;2022-11-11T02:11:52;7.65;;;1.75;;
33830;SDS011;20137;48.834;8.732;2022-11-11T02:14:47;5.28;;;1.52;;
33830;SDS011;20137;48.834;8.732;2022-11-11T02:17:14;5.15;;;1.35;;
33830;SDS011;20137;48.834;8.732;2022-11-11T02:19:46;4.50;;;1.60;;
33830;SDS011;20137;48.834;8.732;2022-11-11T02:22:20;7.50;;;1.50;;
33830;SDS011;20137;48.834;8.732;2022-11-11T02:24:48;6.40;;;1.60;;
33830;SDS011;20137;48.834;8.732;2022-11-11T02:27:14;4.65;;;1.20;;
33830;SDS011;20137;48.834;8.732;2022-11-11T02:29:41;3.33;;;1.30;;
33830;SDS011;20137;48.834;8.732;2022-11-11T02:32:08;6.75;;;1.15;;
33830;SDS011;20137;48.834;8.732;2022-11-11T02:34:34;7.35;;;1.52;;
33830;SDS011;20137;48.834;8.732;2022-11-11T02:37:01;5.90;;;1.50;;
33830;SDS011;20137;48.834;8.732;2022-11-11T02:39:28;6.57;;;1.38;;
33830;SDS011;20137;48.834;8.732;2022-11-11T02:41:54;3.78;;;1.20;;
33830;SDS011;20137;48.834;8.732;2022-11-11T02:44:25;6.30;;;1.60;;
33830;SDS011;20137;48.834;8.732;2022-11-11T02:46:51;4.43;;;1.70;;
33830;SDS011;20137;48.834;8.732;2022-11-11T02:49:18;4.55;;;1.40;;
33830;SDS011;20137;48.834;8.732;2022-11-11T02:51:44;5.70;;;1.55;;
33830;SDS011;20137;48.834;8.732;2022-11-11T02:54:11;5.20;;;1.50;;
33830;SDS011;20137;48.834;8.732;2022-11-11T02:56:37;5.50;;;1.27;;
33830;SDS011;20137;48.834;8.732;2022-11-11T02:59:22;4.07;;;1.40;;
33830;SDS011;20137;48.834;8.732;2022-11-11T03:01:48;3.38;;;1.08;;
33830;SDS011;20137;48.834;8.732;2022-11-11T03:04:14;3.88;;;1.02;;
33830;SDS011;20137;48.834;8.732;2022-11-11T03:06:40;5.03;;;1.48;;
33830;SDS011;20137;48.834;8.732;2022-11-11T03:09:06;4.22;;;1.27;;
33830;SDS011;20137;48.834;8.732;2022-11-11T03:11:32;3.42;;;1.20;;
33830;SDS011;20137;48.834;8.732;2022-11-11T03:14:02;5.55;;;1.35;;
33830;SDS011;20137;48.834;8.732;2022-11-11T03:16:28;3.15;;;1.10;;
33830;SDS011;20137;48.834;8.732;2022-11-11T03:19:13;2.25;;;0.98;;
33830;SDS011;20137;48.834;8.732;2022-11-11T03:21:39;2.88;;;0.98;;
33830;SDS011;20137;48.834;8.732;2022-11-11T03:24:05;4.20;;;0.98;;
33830;SDS011;20137;48.834;8.732;2022-11-11T03:26:31;4.05;;;1.23;;
33830;SDS011;20137;48.834;8.732;2022-11-11T03:28:57;3.67;;;1.00;;
33830;SDS011;20137;48.834;8.732;2022-11-11T03:31:23;4.55;;;1.50;;
33830;SDS011;20137;48.834;8.732;2022-11-11T03:33:49;4.80;;;1.30;;
33830;SDS011;20137;48.834;8.732;2022-11-11T03:36:15;5.40;;;1.08;;
33830;SDS011;20137;48.834;8.732;2022-11-11T03:38:41;3.78;;;1.38;;
33830;SDS011;20137;48.834;8.732;2022-11-11T03:41:07;4.40;;;1.13;;
33830;SDS011;20137;48.834;8.732;2022-11-11T03:43:33;2.47;;;1.02;;
33830;SDS011;20137;48.834;8.732;2022-11-11T03:46:00;3.60;;;1.30;;
33830;SDS011;20137;48.834;8.732;2022-11-11T03:48:27;6.93;;;1.10;;
33830;SDS011;20137;48.834;8.732;2022-11-11T03:50:53;3.75;;;1.10;;
33830;SDS011;20137;48.834;8.732;2022-11-11T03:53:20;3.63;;;1.30;;
33830;SDS011;20137;48.834;8.732;2022-11-11T03:55:47;7.25;;;1.10;;
33830;SDS011;20137;48.834;8.732;2022-11-11T03:58:13;3.55;;;1.02;;
33830;SDS011;20137;48.834;8.732;2022-11-11T04:00:39;3.72;;;1.27;;
33830;SDS011;20137;48.834;8.732;2022-11-11T04:05:49;2.78;;;1.10;;
33830;SDS011;20137;48.834;8.732;2022-11-11T04:08:34;2.45;;;0.73;;
33830;SDS011;20137;48.834;8.732;2022-11-11T04:11:23;4.85;;;1.10;;
33830;SDS011;20137;48.834;8.732;2022-11-11T04:13:49;3.10;;;1.15;;
33830;SDS011;20137;48.834;8.732;2022-11-11T04:16:35;5.57;;;1.00;;
33830;SDS011;20137;48.834;8.732;2022-11-11T04:19:01;2.35;;;1.02;;
33830;SDS011;20137;48.834;8.732;2022-11-11T04:21:45;5.00;;;1.20;;
33830;SDS011;20137;48.834;8.732;2022-11-11T04:24:15;3.08;;;1.05;;
33830;SDS011;20137;48.834;8.732;2022-11-11T04:27:02;3.85;;;0.80;;
33830;SDS011;20137;48.834;8.732;2022-11-11T04:29:29;2.65;;;1.00;;
33830;SDS011;20137;48.834;8.732;2022-11-11T04:31:55;1.80;;;0.98;;
33830;SDS011;20137;48.834;8.732;2022-11-11T04:34:41;1.58;;;1.08;;
33830;SDS011;20137;48.834;8.732;2022-11-11T04:37:07;5.25;;;1.20;;
33830;SDS011;20137;48.834;8.732;2022-11-11T04:39:33;4.00;;;1.48;;
33830;SDS011;20137;48.834;8.732;2022-11-11T04:42:18;4.18;;;1.33;;
33830;SDS011;20137;48.834;8.732;2022-11-11T04:44:44;3.58;;;1.40;;
33830;SDS011;20137;48.834;8.732;2022-11-11T04:47:29;4.05;;;1.20;;
33830;SDS011;20137;48.834;8.732;2022-11-11T04:49:55;5.57;;;2.28;;
33830;SDS011;20137;48.834;8.732;2022-11-11T04:52:21;5.45;;;1.35;;
33830;SDS011;20137;48.834;8.732;2022-11-11T04:54:53;8.82;;;1.65;;
33830;SDS011;20137;48.834;8.732;2022-11-11T04:57:39;4.60;;;1.50;;
33830;SDS011;20137;48.834;8.732;2022-11-11T05:00:06;4.22;;;1.10;;
33830;SDS011;20137;48.834;8.732;2022-11-11T05:02:33;4.43;;;1.10;;
33830;SDS011;20137;48.834;8.732;2022-11-11T05:05:17;4.80;;;1.20;;
33830;SDS011;20137;48.834;8.732;2022-11-11T05:07:43;2.17;;;1.00;;
33830;SDS011;20137;48.834;8.732;2022-11-11T05:10:28;2.67;;;0.90;;
33830;SDS011;20137;48.834;8.732;2022-11-11T05:12:55;5.45;;;1.98;;
33830;SDS011;20137;48.834;8.732;2022-11-11T05:15:44;4.03;;;1.40;;
33830;SDS011;20137;48.834;8.732;2022-11-11T05:18:28;3.38;;;1.20;;
33830;SDS011;20137;48.834;8.732;2022-11-11T05:21:14;2.38;;;1.08;;
33830;SDS011;20137;48.834;8.732;2022-11-11T05:23:47;4.50;;;0.98;;
33830;SDS011;20137;48.834;8.732;2022-11-11T05:26:32;2.70;;;1.00;;
33830;SDS011;20137;48.834;8.732;2022-11-11T05:28:58;3.65;;;0.90;;
33830;SDS011;20137;48.834;8.732;2022-11-11T05:31:24;4.53;;;1.10;;
33830;SDS011;20137;48.834;8.732;2022-11-11T05:33:50;2.55;;;1.02;;
33830;SDS011;20137;48.834;8.732;2022-11-11T05:36:16;5.75;;;1.30;;
33830;SDS011;20137;48.834;8.732;2022-11-11T05:38:42;3.33;;;1.40;;
33830;SDS011;20137;48.834;8.732;2022-11-11T05:41:08;6.15;;;1.88;;
33830;SDS011;20137;48.834;8.732;2022-11-11T05:43:34;3.05;;;1.30;;
33830;SDS011;20137;48.834;8.732;2022-11-11T05:46:00;3.78;;;1.45;;
33830;SDS011;20137;48.834;8.732;2022-11-11T05:48:26;5.50;;;1.65;;
33830;SDS011;20137;48.834;8.732;2022-11-11T05:50:52;9.23;;;3.88;;
33830;SDS011;20137;48.834;8.732;2022-11-11T05:53:18;8.95;;;5.20;;
33830;SDS011;20137;48.834;8.732;2022-11-11T05:55:49;13.27;;;5.35;;
33830;SDS011;20137;48.834;8.732;2022-11-11T05:58:16;7.32;;;3.47;;
33830;SDS011;20137;48.834;8.732;2022-11-11T06:00:42;6.55;;;3.30;;
33830;SDS011;20137;48.834;8.732;2022-11-11T06:03:08;8.23;;;3.78;;
33830;SDS011;20137;48.834;8.732;2022-11-11T06:05:35;7.22;;;3.55;;
33830;SDS011;20137;48.834;8.732;2022-11-11T06:08:01;8.82;;;3.22;;
33830;SDS011;20137;48.834;8.732;2022-11-11T06:10:27;4.25;;;2.53;;
33830;SDS011;20137;48.834;8.732;2022-11-11T06:12:56;7.07;;;2.70;;
33830;SDS011;20137;48.834;8.732;2022-11-11T06:15:34;9.23;;;2.50;;
33830;SDS011;20137;48.834;8.732;2022-11-11T06:18:01;7.15;;;3.22;;
33830;SDS011;20137;48.834;8.732;2022-11-11T06:20:28;3.72;;;1.75;;
33830;SDS011;20137;48.834;8.732;2022-11-11T06:22:54;5.35;;;2.78;;
33830;SDS011;20137;48.834;8.732;2022-11-11T06:25:20;3.85;;;2.38;;
33830;SDS011;20137;48.834;8.732;2022-11-11T06:28:05;5.63;;;2.70;;
33830;SDS011;20137;48.834;8.732;2022-11-11T06:30:31;5.32;;;2.58;;
33830;SDS011;20137;48.834;8.732;2022-11-11T06:32:57;7.07;;;2.90;;
33830;SDS011;20137;48.834;8.732;2022-11-11T06:35:23;10.95;;;2.70;;
33830;SDS011;20137;48.834;8.732;2022-11-11T06:37:49;4.05;;;2.20;;
33830;SDS011;20137;48.834;8.732;2022-11-11T06:40:15;5.22;;;2.08;;
33830;SDS011;20137;48.834;8.732;2022-11-11T06:42:41;8.15;;;1.90;;
33830;SDS011;20137;48.834;8.732;2022-11-11T06:45:07;4.60;;;1.80;;
33830;SDS011;20137;48.834;8.732;2022-11-11T06:47:33;3.70;;;1.50;;
33830;SDS011;20137;48.834;8.732;2022-11-11T06:50:00;1.92;;;1.38;;
33830;SDS011;20137;48.834;8.732;2022-11-11T06:52:26;3.42;;;1.33;;
33830;SDS011;20137;48.834;8.732;2022-11-11T06:54:52;3.33;;;1.30;;
33830;SDS011;20137;48.834;8.732;2022-11-11T06:57:21;4.35;;;1.45;;
33830;SDS011;20137;48.834;8.732;2022-11-11T06:59:47;3.83;;;1.20;;
33830;SDS011;20137;48.834;8.732;2022-11-11T07:02:13;6.95;;;1.60;;
33830;SDS011;20137;48.834;8.732;2022-11-11T07:04:40;2.80;;;1.60;;
33830;SDS011;20137;48.834;8.732;2022-11-11T07:07:06;7.35;;;2.08;;
33830;SDS011;20137;48.834;8.732;2022-11-11T07:09:32;7.13;;;2.25;;
33830;SDS011;20137;48.834;8.732;2022-11-11T07:11:58;6.40;;;2.00;;
33830;SDS011;20137;48.834;8.732;2022-11-11T07:14:25;3.42;;;1.73;;
33830;SDS011;20137;48.834;8.732;2022-11-11T07:16:51;2.65;;;1.40;;
33830;SDS011;20137;48.834;8.732;2022-11-11T07:19:17;3.92;;;1.38;;
33830;SDS011;20137;48.834;8.732;2022-11-11T07:21:43;7.32;;;5.60;;
33830;SDS011;20137;48.834;8.732;2022-11-11T07:24:09;8.43;;;7.53;;
33830;SDS011;20137;48.834;8.732;2022-11-11T07:26:35;8.27;;;6.05;;
33830;SDS011;20137;48.834;8.732;2022-11-11T07:29:01;6.60;;;4.53;;
33830;SDS011;20137;48.834;8.732;2022-11-11T07:31:27;6.25;;;4.00;;
33830;SDS011;20137;48.834;8.732;2022-11-11T07:33:54;9.48;;;4.40;;
33830;SDS011;20137;48.834;8.732;2022-11-11T07:36:20;7.70;;;3.70;;
33830;SDS011;20137;48.834;8.732;2022-11-11T07:38:46;10.10;;;5.55;;
33830;SDS011;20137;48.834;8.732;2022-11-11T07:41:12;13.35;;;5.97;;
33830;SDS011;20137;48.834;8.732;2022-11-11T07:43:38;13.85;;;5.40;;
33830;SDS011;20137;48.834;8.732;2022-11-11T07:46:04;9.82;;;5.18;;
33830;SDS011;20137;48.834;8.732;2022-11-11T07:48:30;7.13;;;3.60;;
33830;SDS011;20137;48.834;8.732;2022-11-11T07:50:56;5.40;;;3.10;;
33830;SDS011;20137;48.834;8.732;2022-11-11T07:53:22;8.05;;;2.20;;
33830;SDS011;20137;48.834;8.732;2022-11-11T07:55:50;4.45;;;2.03;;
33830;SDS011;20137;48.834;8.732;2022-11-11T07:58:16;3.63;;;2.28;;
33830;SDS011;20137;48.834;8.732;2022-11-11T08:00:42;3.75;;;1.75;;
33830;SDS011;20137;48.834;8.732;2022-11-11T08:03:08;3.90;;;2.30;;
33830;SDS011;20137;48.834;8.732;2022-11-11T08:05:34;3.08;;;2.42;;
33830;SDS011;20137;48.834;8.732;2022-11-11T08:08:04;5.22;;;2.30;;
33830;SDS011;20137;48.834;8.732;2022-11-11T08:10:30;2.97;;;2.08;;
33830;SDS011;20137;48.834;8.732;2022-11-11T08:12:56;3.45;;;2.08;;
33830;SDS011;20137;48.834;8.732;2022-11-11T08:15:41;3.65;;;1.90;;
33830;SDS011;20137;48.834;8.732;2022-11-11T08:18:07;3.85;;;1.75;;
33830;SDS011;20137;48.834;8.732;2022-11-11T08:20:33;4.15;;;1.80;;
33830;SDS011;20137;48.834;8.732;2022-11-11T08:22:59;3.55;;;1.52;;
33830;SDS011;20137;48.834;8.732;2022-11-11T08:25:28;3.85;;;1.48;;
33830;SDS011;20137;48.834;8.732;2022-11-11T08:28:01;3.15;;;1.10;;
33830;SDS011;20137;48.834;8.732;2022-11-11T08:30:28;2.78;;;1.15;;
33830;SDS011;20137;48.834;8.732;2022-11-11T08:33:01;3.25;;;1.60;;
33830;SDS011;20137;48.834;8.732;2022-11-11T08:35:28;7.25;;;3.05;;
33830;SDS011;20137;48.834;8.732;2022-11-11T08:37:54;8.20;;;3.50;;
33830;SDS011;20137;48.834;8.732;2022-11-11T08:40:20;8.57;;;3.97;;
33830;SDS011;20137;48.834;8.732;2022-11-11T08:42:46;7.53;;;3.45;;
33830;SDS011;20137;48.834;8.732;2022-11-11T08:45:12;5.40;;;2.90;;
33830;SDS011;20137;48.834;8.732;2022-11-11T08:47:38;4.55;;;2.30;;
33830;SDS011;20137;48.834;8.732;2022-11-11T08:50:05;4.10;;;2.08;;
33830;SDS011;20137;48.834;8.732;2022-11-11T08:52:31;4.97;;;1.90;;
33830;SDS011;20137;48.834;8.732;2022-11-11T08:54:57;3.83;;;1.98;;
33830;SDS011;20137;48.834;8.732;2022-11-11T08:57:26;4.93;;;2.92;;
33830;SDS011;20137;48.834;8.732;2022-11-11T08:59:52;9.90;;;2.97;;
33830;SDS011;20137;48.834;8.732;2022-11-11T09:02:18;4.93;;;2.58;;
33830;SDS011;20137;48.834;8.732;2022-11-11T09:04:44;8.93;;;2.65;;
33830;SDS011;20137;48.834;8.732;2022-11-11T09:07:11;5.13;;;2.60;;
33830;SDS011;20137;48.834;8.732;2022-11-11T09:09:37;7.53;;;2.40;;
33830;SDS011;20137;48.834;8.732;2022-11-11T09:12:03;5.68;;;2.63;;
33830;SDS011;20137;48.834;8.732;2022-11-11T09:14:29;7.13;;;2.72;;
33830;SDS011;20137;48.834;8.732;2022-11-11T09:16:55;5.05;;;2.40;;
33830;SDS011;20137;48.834;8.732;2022-11-11T09:19:21;3.80;;;2.25;;
33830;SDS011;20137;48.834;8.732;2022-11-11T09:21:49;5.43;;;3.08;;
33830;SDS011;20137;48.834;8.732;2022-11-11T09:24:16;9.13;;;2.22;;
33830;SDS011;20137;48.834;8.732;2022-11-11T09:26:42;4.07;;;2.08;;
33830;SDS011;20137;48.834;8.732;2022-11-11T09:29:09;7.45;;;2.35;;
33830;SDS011;20137;48.834;8.732;2022-11-11T09:31:35;6.65;;;2.40;;
33830;SDS011;20137;48.834;8.732;2022-11-11T09:34:01;5.20;;;2.30;;
33830;SDS011;20137;48.834;8.732;2022-11-11T09:36:27;4.35;;;2.13;;
33830;SDS011;20137;48.834;8.732;2022-11-11T09:38:53;5.90;;;1.88;;
33830;SDS011;20137;48.834;8.732;2022-11-11T09:41:24;3.83;;;2.30;;
33830;SDS011;20137;48.834;8.732;2022-11-11T09:44:04;3.58;;;2.15;;
33830;SDS011;20137;48.834;8.732;2022-11-11T09:46:32;4.07;;;1.80;;
33830;SDS011;20137;48.834;8.732;2022-11-11T09:51:42;2.60;;;1.45;;
33830;SDS011;20137;48.834;8.732;2022-11-11T09:54:14;5.23;;;1.70;;
33830;SDS011;20137;48.834;8.732;2022-11-11T09:56:42;2.88;;;1.55;;
33830;SDS011;20137;48.834;8.732;2022-11-11T09:59:11;2.10;;;1.13;;
33830;SDS011;20137;48.834;8.732;2022-11-11T10:01:41;3.95;;;1.25;;
33830;SDS011;20137;48.834;8.732;2022-11-11T10:04:21;2.53;;;0.85;;
33830;SDS011;20137;48.834;8.732;2022-11-11T10:06:48;1.63;;;1.10;;
33830;SDS011;20137;48.834;8.732;2022-11-11T10:09:20;2.85;;;1.20;;
33830;SDS011;20137;48.834;8.732;2022-11-11T10:11:53;2.20;;;0.85;;
33830;SDS011;20137;48.834;8.732;2022-11-11T10:14:22;2.60;;;0.80;;
33830;SDS011;20137;48.834;8.732;2022-11-11T10:16:52;4.40;;;1.38;;
33830;SDS011;20137;48.834;8.732;2022-11-11T10:24:42;8.52;;;1.85;;
33830;SDS011;20137;48.834;8.732;2022-11-11T10:27:20;3.85;;;2.63;;
33830;SDS011;20137;48.834;8.732;2022-11-11T10:29:46;6.38;;;2.38;;
33830;SDS011;20137;48.834;8.732;2022-11-11T10:32:20;2.83;;;1.65;;
33830;SDS011;20137;48.834;8.732;2022-11-11T10:34:46;4.90;;;1.88;;
33830;SDS011;20137;48.834;8.732;2022-11-11T10:37:23;5.03;;;1.60;;
33830;SDS011;20137;48.834;8.732;2022-11-11T10:39:57;5.00;;;1.90;;
33830;SDS011;20137;48.834;8.732;2022-11-11T10:42:25;3.03;;;2.08;;
33830;SDS011;20137;48.834;8.732;2022-11-11T10:44:53;4.63;;;2.38;;
33830;SDS011;20137;48.834;8.732;2022-11-11T10:47:28;4.13;;;2.13;;
33830;SDS011;20137;48.834;8.732;2022-11-11T10:49:58;4.25;;;2.35;;
33830;SDS011;20137;48.834;8.732;2022-11-11T10:52:32;3.88;;;2.33;;
33830;SDS011;20137;48.834;8.732;2022-11-11T10:55:01;3.70;;;1.88;;
33830;SDS011;20137;48.834;8.732;2022-11-11T11:00:05;3.10;;;1.90;;
33830;SDS011;20137;48.834;8.732;2022-11-11T11:05:19;3.20;;;1.50;;
33830;SDS011;20137;48.834;8.732;2022-11-11T11:07:48;2.58;;;1.30;;
33830;SDS011;20137;48.834;8.732;2022-11-11T11:10:26;5.43;;;1.30;;
33830;SDS011;20137;48.834;8.732;2022-11-11T11:13:07;2.67;;;1.20;;
33830;SDS011;20137;48.834;8.732;2022-11-11T11:15:38;2.92;;;1.55;;
33830;SDS011;20137;48.834;8.732;2022-11-11T11:18:09;2.92;;;1.38;;
33830;SDS011;20137;48.834;8.732;2022-11-11T11:20:37;4.05;;;1.50;;
33830;SDS011;20137;48.834;8.732;2022-11-11T11:23:03;2.78;;;1.52;;
33830;SDS011;20137;48.834;8.732;2022-11-11T11:25:31;4.25;;;1.52;;
33830;SDS011;20137;48.834;8.732;2022-11-11T11:28:12;3.30;;;1.83;;
33830;SDS011;20137;48.834;8.732;2022-11-11T11:30:38;3.05;;;1.70;;
33830;SDS011;20137;48.834;8.732;2022-11-11T11:33:06;4.65;;;1.50;;
33830;SDS011;20137;48.834;8.732;2022-11-11T11:35:34;3.47;;;1.60;;
33830;SDS011;20137;48.834;8.732;2022-11-11T11:38:00;2.22;;;1.35;;
33830;SDS011;20137;48.834;8.732;2022-11-11T11:40:27;3.15;;;1.30;;
33830;SDS011;20137;48.834;8.732;2022-11-11T11:43:23;3.85;;;1.27;;
33830;SDS011;20137;48.834;8.732;2022-11-11T11:45:55;5.40;;;1.42;;
33830;SDS011;20137;48.834;8.732;2022-11-11T11:48:34;2.95;;;1.15;;
33830;SDS011;20137;48.834;8.732;2022-11-11T11:51:16;3.90;;;1.45;;
33830;SDS011;20137;48.834;8.732;2022-11-11T11:59:04;2.72;;;1.70;;
33830;SDS011;20137;48.834;8.732;2022-11-11T12:17:22;2.67;;;1.90;;
33830;SDS011;20137;48.834;8.732;2022-11-11T12:25:10;3.97;;;2.30;;
33830;SDS011;20137;48.834;8.732;2022-11-11T12:30:46;6.35;;;2.60;;
33830;SDS011;20137;48.834;8.732;2022-11-11T12:38:33;4.70;;;2.50;;
33830;SDS011;20137;48.834;8.732;2022-11-11T12:46:53;5.82;;;3.13;;
33830;SDS011;20137;48.834;8.732;2022-11-11T12:52:22;4.90;;;2.65;;
33830;SDS011;20137;48.834;8.732;2022-11-11T12:55:00;5.47;;;3.42;;
33830;SDS011;20137;48.834;8.732;2022-11-11T13:00:02;15.52;;;3.38;;
33830;SDS011;20137;48.834;8.732;2022-11-11T13:12:45;5.90;;;2.65;;
33830;SDS011;20137;48.834;8.732;2022-11-11T13:15:16;7.53;;;2.97;;
33830;SDS011;20137;48.834;8.732;2022-11-11T13:17:43;7.07;;;2.80;;
33830;SDS011;20137;48.834;8.732;2022-11-11T13:22:45;5.97;;;2.57;;
33830;SDS011;20137;48.834;8.732;2022-11-11T13:25:13;4.95;;;2.88;;
33830;SDS011;20137;48.834;8.732;2022-11-11T13:27:47;8.55;;;3.03;;
33830;SDS011;20137;48.834;8.732;2022-11-11T13:32:53;6.68;;;2.97;;
33830;SDS011;20137;48.834;8.732;2022-11-11T13:35:24;5.00;;;2.92;;
33830;SDS011;20137;48.834;8.732;2022-11-11T13:37:51;6.28;;;3.25;;
33830;SDS011;20137;48.834;8.732;2022-11-11T13:40:23;5.32;;;2.60;;
33830;SDS011;20137;48.834;8.732;2022-11-11T13:42:51;6.75;;;3.13;;
33830;SDS011;20137;48.834;8.732;2022-11-11T13:45:21;3.95;;;2.40;;
33830;SDS011;20137;48.834;8.732;2022-11-11T13:47:48;7.75;;;2.45;;
33830;SDS011;20137;48.834;8.732;2022-11-11T13:50:26;7.13;;;2.63;;
33830;SDS011;20137;48.834;8.732;2022-11-11T13:55:33;6.07;;;2.47;;
33830;SDS011;20137;48.834;8.732;2022-11-11T13:58:01;3.13;;;2.08;;
33830;SDS011;20137;48.834;8.732;2022-11-11T14:00:28;11.57;;;2.38;;
33830;SDS011;20137;48.834;8.732;2022-11-11T14:03:31;8.35;;;2.63;;
33830;SDS011;20137;48.834;8.732;2022-11-11T14:05:50;5.65;;;2.47;;
33830;SDS011;20137;48.834;8.732;2022-11-11T14:11:33;4.78;;;2.45;;
33830;SDS011;20137;48.834;8.732;2022-11-11T14:21:49;7.63;;;3.15;;
33830;SDS011;20137;48.834;8.732;2022-11-11T14:24:37;6.05;;;3.17;;
33830;SDS011;20137;48.834;8.732;2022-11-11T14:29:51;4.43;;;2.50;;
33830;SDS011;20137;48.834;8.732;2022-11-11T14:34:57;7.43;;;4.30;;
33830;SDS011;20137;48.834;8.732;2022-11-11T14:39:50;9.13;;;2.63;;
33830;SDS011;20137;48.834;8.732;2022-11-11T14:45:02;6.70;;;3.00;;
33830;SDS011;20137;48.834;8.732;2022-11-11T14:47:33;14.70;;;3.10;;
33830;SDS011;20137;48.834;8.732;2022-11-11T14:49:59;6.70;;;2.90;;
33830;SDS011;20137;48.834;8.732;2022-11-11T14:52:31;5.78;;;2.83;;
33830;SDS011;20137;48.834;8.732;2022-11-11T14:57:28;10.77;;;4.03;;
33830;SDS011;20137;48.834;8.732;2022-11-11T14:59:55;10.68;;;3.90;;
33830;SDS011;20137;48.834;8.732;2022-11-11T15:02:24;9.93;;;3.97;;
33830;SDS011;20137;48.834;8.732;2022-11-11T15:04:50;13.07;;;4.20;;
33830;SDS011;20137;48.834;8.732;2022-11-11T15:07:35;5.93;;;3.38;;
33830;SDS011;20137;48.834;8.732;2022-11-11T15:10:18;9.43;;;4.20;;
33830;SDS011;20137;48.834;8.732;2022-11-11T15:15:39;14.48;;;4.35;;
33830;SDS011;20137;48.834;8.732;2022-11-11T15:18:18;7.93;;;4.03;;
33830;SDS011;20137;48.834;8.732;2022-11-11T15:21:04;8.23;;;4.22;;
33830;SDS011;20137;48.834;8.732;2022-11-11T15:23:44;9.57;;;4.13;;
33830;SDS011;20137;48.834;8.732;2022-11-11T15:26:20;8.73;;;4.25;;
33830;SDS011;20137;48.834;8.732;2022-11-11T15:28:54;8.68;;;3.97;;
33830;SDS011;20137;48.834;8.732;2022-11-11T15:32:02;10.57;;;4.03;;
33830;SDS011;20137;48.834;8.732;2022-11-11T15:37:05;12.40;;;4.35;;
33830;SDS011;20137;48.834;8.732;2022-11-11T15:39:41;4.85;;;3.70;;
33830;SDS011;20137;48.834;8.732;2022-11-11T15:47:44;9.67;;;5.97;;
33830;SDS011;20137;48.834;8.732;2022-11-11T15:50:26;12.68;;;5.90;;
33830;SDS011;20137;48.834;8.732;2022-11-11T15:52:58;12.00;;;6.55;;
33830;SDS011;20137;48.834;8.732;2022-11-11T15:55:25;29.45;;;14.77;;
33830;SDS011;20137;48.834;8.732;2022-11-11T15:57:51;29.08;;;14.52;;
33830;SDS011;20137;48.834;8.732;2022-11-11T16:02:50;22.40;;;12.07;;
33830;SDS011;20137;48.834;8.732;2022-11-11T16:05:19;26.70;;;14.07;;
33830;SDS011;20137;48.834;8.732;2022-11-11T16:07:46;32.97;;;14.85;;
33830;SDS011;20137;48.834;8.732;2022-11-11T16:10:16;34.72;;;17.33;;
33830;SDS011;20137;48.834;8.732;2022-11-11T16:15:17;32.97;;;18.95;;
33830;SDS011;20137;48.834;8.732;2022-11-11T16:17:44;30.60;;;19.63;;
33830;SDS011;20137;48.834;8.732;2022-11-11T16:20:13;29.55;;;17.73;;
33830;SDS011;20137;48.834;8.732;2022-11-11T16:22:40;24.10;;;14.45;;
33830;SDS011;20137;48.834;8.732;2022-11-11T16:25:20;22.05;;;13.32;;
33830;SDS011;20137;48.834;8.732;2022-11-11T16:27:46;23.42;;;15.13;;
33830;SDS011;20137;48.834;8.732;2022-11-11T16:30:17;22.25;;;15.20;;
33830;SDS011;20137;48.834;8.732;2022-11-11T16:32:43;24.17;;;15.23;;
33830;SDS011;20137;48.834;8.732;2022-11-11T16:37:54;23.85;;;12.60;;
33830;SDS011;20137;48.834;8.732;2022-11-11T16:51:06;17.40;;;10.60;;
33830;SDS011;20137;48.834;8.732;2022-11-11T16:53:34;18.77;;;12.07;;
33830;SDS011;20137;48.834;8.732;2022-11-11T16:56:00;18.20;;;11.65;;
33830;SDS011;20137;48.834;8.732;2022-11-11T16:58:27;22.30;;;12.70;;
33830;SDS011;20137;48.834;8.732;2022-11-11T17:01:00;21.67;;;11.95;;
33830;SDS011;20137;48.834;8.732;2022-11-11T17:03:27;23.05;;;11.23;;
33830;SDS011;20137;48.834;8.732;2022-11-11T17:06:00;22.92;;;11.80;;
33830;SDS011;20137;48.834;8.732;2022-11-11T17:10:58;38.13;;;17.00;;
33830;SDS011;20137;48.834;8.732;2022-11-11T17:13:25;29.13;;;15.40;;
33830;SDS011;20137;48.834;8.732;2022-11-11T17:15:52;26.90;;;14.20;;
33830;SDS011;20137;48.834;8.732;2022-11-11T17:18:19;28.13;;;13.52;;
33830;SDS011;20137;48.834;8.732;2022-11-11T17:20:45;21.30;;;12.32;;
33830;SDS011;20137;48.834;8.732;2022-11-11T17:23:11;20.52;;;12.70;;
33830;SDS011;20137;48.834;8.732;2022-11-11T17:25:37;22.70;;;12.10;;